sensor_id;sensor_type;location;lat;lon;timestamp;temperature;humidity
39045;DHT22;52192;52.002;5.956;2024-01-07T00:01:08;4.70;83.00
39045;DHT22;52192;52.002;5.956;2024-01-07T00:03:34;4.70;83.10
39045;DHT22;52192;52.002;5.956;2024-01-07T00:06:00;4.70;83.20
39045;DHT22;52192;52.002;5.956;2024-01-07T00:08:25;4.70;83.20
39045;DHT22;52192;52.002;5.956;2024-01-07T00:10:51;4.70;83.20
39045;DHT22;52192;52.002;5.956;2024-01-07T00:13:17;4.80;83.30
39045;DHT22;52192;52.002;5.956;2024-01-07T00:15:42;4.80;83.30
39045;DHT22;52192;52.002;5.956;2024-01-07T00:18:08;4.80;83.20
39045;DHT22;52192;52.002;5.956;2024-01-07T00:20:34;4.80;83.10
39045;DHT22;52192;52.002;5.956;2024-01-07T00:23:00;4.70;83.20
39045;DHT22;52192;52.002;5.956;2024-01-07T00:25:26;4.70;83.30
39045;DHT22;52192;52.002;5.956;2024-01-07T00:27:52;4.70;83.30
39045;DHT22;52192;52.002;5.956;2024-01-07T00:30:21;4.70;83.20
39045;DHT22;52192;52.002;5.956;2024-01-07T00:32:46;4.70;83.30
39045;DHT22;52192;52.002;5.956;2024-01-07T00:35:12;4.60;83.40
39045;DHT22;52192;52.002;5.956;2024-01-07T00:37:38;4.60;83.60
39045;DHT22;52192;52.002;5.956;2024-01-07T00:40:05;4.60;84.30
39045;DHT22;52192;52.002;5.956;2024-01-07T00:42:31;4.60;83.60
39045;DHT22;52192;52.002;5.956;2024-01-07T00:44:56;4.60;83.60
39045;DHT22;52192;52.002;5.956;2024-01-07T00:47:22;4.70;83.60
39045;DHT22;52192;52.002;5.956;2024-01-07T00:49:48;4.70;83.50
39045;DHT22;52192;52.002;5.956;2024-01-07T00:52:13;4.70;83.60
39045;DHT22;52192;52.002;5.956;2024-01-07T00:54:39;4.70;83.60
39045;DHT22;52192;52.002;5.956;2024-01-07T00:57:05;4.70;83.60
39045;DHT22;52192;52.002;5.956;2024-01-07T00:59:30;4.70;83.60
39045;DHT22;52192;52.002;5.956;2024-01-07T01:01:56;4.60;83.70
39045;DHT22;52192;52.002;5.956;2024-01-07T01:04:22;4.60;83.80
39045;DHT22;52192;52.002;5.956;2024-01-07T01:06:47;4.60;83.80
39045;DHT22;52192;52.002;5.956;2024-01-07T01:09:13;4.60;83.80
39045;DHT22;52192;52.002;5.956;2024-01-07T01:11:39;4.50;83.60
39045;DHT22;52192;52.002;5.956;2024-01-07T01:14:05;4.50;83.60
39045;DHT22;52192;52.002;5.956;2024-01-07T01:16:30;4.50;83.60
39045;DHT22;52192;52.002;5.956;2024-01-07T01:18:56;4.50;83.60
39045;DHT22;52192;52.002;5.956;2024-01-07T01:21:22;4.50;83.60
39045;DHT22;52192;52.002;5.956;2024-01-07T01:23:48;4.50;83.50
39045;DHT22;52192;52.002;5.956;2024-01-07T01:26:15;4.50;83.60
39045;DHT22;52192;52.002;5.956;2024-01-07T01:28:41;4.50;83.50
39045;DHT22;52192;52.002;5.956;2024-01-07T01:31:06;4.50;83.70
39045;DHT22;52192;52.002;5.956;2024-01-07T01:33:32;4.50;83.70
39045;DHT22;52192;52.002;5.956;2024-01-07T01:35:58;4.50;83.70
39045;DHT22;52192;52.002;5.956;2024-01-07T01:38:23;4.50;83.60
39045;DHT22;52192;52.002;5.956;2024-01-07T01:40:53;4.50;83.60
39045;DHT22;52192;52.002;5.956;2024-01-07T01:43:28;4.40;83.70
39045;DHT22;52192;52.002;5.956;2024-01-07T01:45:55;4.50;83.70
39045;DHT22;52192;52.002;5.956;2024-01-07T01:48:22;4.50;83.70
39045;DHT22;52192;52.002;5.956;2024-01-07T01:50:48;4.50;83.60
39045;DHT22;52192;52.002;5.956;2024-01-07T01:53:15;4.40;83.60
39045;DHT22;52192;52.002;5.956;2024-01-07T01:55:42;4.40;83.70
39045;DHT22;52192;52.002;5.956;2024-01-07T01:58:09;4.40;83.80
39045;DHT22;52192;52.002;5.956;2024-01-07T02:00:35;4.40;83.80
39045;DHT22;52192;52.002;5.956;2024-01-07T02:03:01;4.40;83.90
39045;DHT22;52192;52.002;5.956;2024-01-07T02:05:27;4.40;83.70
39045;DHT22;52192;52.002;5.956;2024-01-07T02:07:54;4.40;83.70
39045;DHT22;52192;52.002;5.956;2024-01-07T02:10:22;4.30;83.80
39045;DHT22;52192;52.002;5.956;2024-01-07T02:12:47;4.30;84.00
39045;DHT22;52192;52.002;5.956;2024-01-07T02:15:14;4.40;84.00
39045;DHT22;52192;52.002;5.956;2024-01-07T02:17:40;4.40;84.00
39045;DHT22;52192;52.002;5.956;2024-01-07T02:20:06;4.40;84.00
39045;DHT22;52192;52.002;5.956;2024-01-07T02:22:32;4.40;84.00
39045;DHT22;52192;52.002;5.956;2024-01-07T02:24:58;4.40;84.00
39045;DHT22;52192;52.002;5.956;2024-01-07T02:27:23;4.40;84.00
39045;DHT22;52192;52.002;5.956;2024-01-07T02:29:49;4.40;84.00
39045;DHT22;52192;52.002;5.956;2024-01-07T02:32:15;4.40;83.90
39045;DHT22;52192;52.002;5.956;2024-01-07T02:34:40;4.40;83.90
39045;DHT22;52192;52.002;5.956;2024-01-07T02:37:06;4.40;83.80
39045;DHT22;52192;52.002;5.956;2024-01-07T02:39:32;4.30;84.00
39045;DHT22;52192;52.002;5.956;2024-01-07T02:41:58;4.30;84.10
39045;DHT22;52192;52.002;5.956;2024-01-07T02:44:23;4.20;84.10
39045;DHT22;52192;52.002;5.956;2024-01-07T02:46:49;4.20;84.20
39045;DHT22;52192;52.002;5.956;2024-01-07T02:49:15;4.20;84.30
39045;DHT22;52192;52.002;5.956;2024-01-07T02:51:41;4.20;84.40
39045;DHT22;52192;52.002;5.956;2024-01-07T02:54:06;4.20;84.20
39045;DHT22;52192;52.002;5.956;2024-01-07T02:56:32;4.20;84.10
39045;DHT22;52192;52.002;5.956;2024-01-07T02:58:58;4.20;84.10
39045;DHT22;52192;52.002;5.956;2024-01-07T03:01:23;4.20;84.20
39045;DHT22;52192;52.002;5.956;2024-01-07T03:03:50;4.20;84.20
39045;DHT22;52192;52.002;5.956;2024-01-07T03:06:15;4.20;84.20
39045;DHT22;52192;52.002;5.956;2024-01-07T03:08:42;4.20;84.10
39045;DHT22;52192;52.002;5.956;2024-01-07T03:11:08;4.20;84.10
39045;DHT22;52192;52.002;5.956;2024-01-07T03:13:34;4.20;84.10
39045;DHT22;52192;52.002;5.956;2024-01-07T03:16:00;4.20;84.00
39045;DHT22;52192;52.002;5.956;2024-01-07T03:18:27;4.20;84.00
39045;DHT22;52192;52.002;5.956;2024-01-07T03:20:52;4.20;84.10
39045;DHT22;52192;52.002;5.956;2024-01-07T03:23:18;4.20;84.00
39045;DHT22;52192;52.002;5.956;2024-01-07T03:25:44;4.20;84.00
39045;DHT22;52192;52.002;5.956;2024-01-07T03:28:10;4.20;84.60
39045;DHT22;52192;52.002;5.956;2024-01-07T03:30:35;4.20;84.00
39045;DHT22;52192;52.002;5.956;2024-01-07T03:33:01;4.20;84.00
39045;DHT22;52192;52.002;5.956;2024-01-07T03:35:27;4.20;84.10
39045;DHT22;52192;52.002;5.956;2024-01-07T03:37:53;4.10;84.70
39045;DHT22;52192;52.002;5.956;2024-01-07T03:40:18;4.10;84.10
39045;DHT22;52192;52.002;5.956;2024-01-07T03:42:44;4.10;84.10
39045;DHT22;52192;52.002;5.956;2024-01-07T03:45:10;4.10;84.00
39045;DHT22;52192;52.002;5.956;2024-01-07T03:47:36;4.00;84.00
39045;DHT22;52192;52.002;5.956;2024-01-07T03:50:01;4.00;84.10
39045;DHT22;52192;52.002;5.956;2024-01-07T03:52:27;4.00;84.10
39045;DHT22;52192;52.002;5.956;2024-01-07T03:54:54;4.00;84.20
39045;DHT22;52192;52.002;5.956;2024-01-07T03:57:19;4.00;84.20
39045;DHT22;52192;52.002;5.956;2024-01-07T03:59:45;4.00;84.10
39045;DHT22;52192;52.002;5.956;2024-01-07T04:02:11;4.00;84.00
39045;DHT22;52192;52.002;5.956;2024-01-07T04:04:37;4.00;84.00
39045;DHT22;52192;52.002;5.956;2024-01-07T04:07:03;4.00;84.00
39045;DHT22;52192;52.002;5.956;2024-01-07T04:09:28;4.00;83.90
39045;DHT22;52192;52.002;5.956;2024-01-07T04:11:54;3.90;83.90
39045;DHT22;52192;52.002;5.956;2024-01-07T04:14:20;3.90;84.00
39045;DHT22;52192;52.002;5.956;2024-01-07T04:16:45;3.90;84.00
39045;DHT22;52192;52.002;5.956;2024-01-07T04:19:11;3.90;84.00
39045;DHT22;52192;52.002;5.956;2024-01-07T04:21:37;4.00;84.00
39045;DHT22;52192;52.002;5.956;2024-01-07T04:24:03;3.90;83.90
39045;DHT22;52192;52.002;5.956;2024-01-07T04:26:28;4.00;83.90
39045;DHT22;52192;52.002;5.956;2024-01-07T04:28:54;4.00;83.90
39045;DHT22;52192;52.002;5.956;2024-01-07T04:31:20;4.00;83.80
39045;DHT22;52192;52.002;5.956;2024-01-07T04:33:45;4.00;83.80
39045;DHT22;52192;52.002;5.956;2024-01-07T04:36:11;4.00;83.70
39045;DHT22;52192;52.002;5.956;2024-01-07T04:38:37;4.00;83.70
39045;DHT22;52192;52.002;5.956;2024-01-07T04:41:03;4.00;83.70
39045;DHT22;52192;52.002;5.956;2024-01-07T04:43:28;4.00;83.70
39045;DHT22;52192;52.002;5.956;2024-01-07T04:45:55;4.00;83.60
39045;DHT22;52192;52.002;5.956;2024-01-07T04:48:21;3.90;83.60
39045;DHT22;52192;52.002;5.956;2024-01-07T04:50:47;3.90;83.70
39045;DHT22;52192;52.002;5.956;2024-01-07T04:53:12;3.90;83.70
39045;DHT22;52192;52.002;5.956;2024-01-07T04:55:39;3.90;83.70
39045;DHT22;52192;52.002;5.956;2024-01-07T04:58:04;3.90;83.70
39045;DHT22;52192;52.002;5.956;2024-01-07T05:00:30;3.90;83.70
39045;DHT22;52192;52.002;5.956;2024-01-07T05:02:56;3.90;83.70
39045;DHT22;52192;52.002;5.956;2024-01-07T05:05:22;3.90;83.60
39045;DHT22;52192;52.002;5.956;2024-01-07T05:07:48;3.90;83.60
39045;DHT22;52192;52.002;5.956;2024-01-07T05:10:13;3.90;83.50
39045;DHT22;52192;52.002;5.956;2024-01-07T05:12:39;3.90;83.50
39045;DHT22;52192;52.002;5.956;2024-01-07T05:15:05;3.90;83.50
39045;DHT22;52192;52.002;5.956;2024-01-07T05:17:31;3.80;83.40
39045;DHT22;52192;52.002;5.956;2024-01-07T05:19:57;3.90;83.40
39045;DHT22;52192;52.002;5.956;2024-01-07T05:22:24;3.90;83.20
39045;DHT22;52192;52.002;5.956;2024-01-07T05:24:49;3.90;83.20
39045;DHT22;52192;52.002;5.956;2024-01-07T05:27:15;3.80;83.30
39045;DHT22;52192;52.002;5.956;2024-01-07T05:29:44;3.80;83.40
39045;DHT22;52192;52.002;5.956;2024-01-07T05:32:11;3.80;83.40
39045;DHT22;52192;52.002;5.956;2024-01-07T05:34:37;3.80;83.40
39045;DHT22;52192;52.002;5.956;2024-01-07T05:37:03;3.80;83.40
39045;DHT22;52192;52.002;5.956;2024-01-07T05:39:29;3.80;83.40
39045;DHT22;52192;52.002;5.956;2024-01-07T05:41:54;3.80;83.20
39045;DHT22;52192;52.002;5.956;2024-01-07T05:44:20;3.80;83.20
39045;DHT22;52192;52.002;5.956;2024-01-07T05:46:46;3.80;83.20
39045;DHT22;52192;52.002;5.956;2024-01-07T05:49:11;3.80;83.10
39045;DHT22;52192;52.002;5.956;2024-01-07T05:51:41;3.90;83.10
39045;DHT22;52192;52.002;5.956;2024-01-07T05:54:06;3.80;83.00
39045;DHT22;52192;52.002;5.956;2024-01-07T05:56:32;3.90;83.10
39045;DHT22;52192;52.002;5.956;2024-01-07T05:58:58;3.90;82.90
39045;DHT22;52192;52.002;5.956;2024-01-07T06:01:23;3.90;82.80
39045;DHT22;52192;52.002;5.956;2024-01-07T06:03:49;3.90;82.80
39045;DHT22;52192;52.002;5.956;2024-01-07T06:06:15;3.90;82.80
39045;DHT22;52192;52.002;5.956;2024-01-07T06:08:43;3.90;82.70
39045;DHT22;52192;52.002;5.956;2024-01-07T06:11:09;3.80;82.80
39045;DHT22;52192;52.002;5.956;2024-01-07T06:13:37;3.80;82.90
39045;DHT22;52192;52.002;5.956;2024-01-07T06:16:03;3.90;82.90
39045;DHT22;52192;52.002;5.956;2024-01-07T06:18:29;3.80;82.80
39045;DHT22;52192;52.002;5.956;2024-01-07T06:20:55;3.80;82.90
39045;DHT22;52192;52.002;5.956;2024-01-07T06:23:20;3.80;83.00
39045;DHT22;52192;52.002;5.956;2024-01-07T06:25:46;3.80;82.90
39045;DHT22;52192;52.002;5.956;2024-01-07T06:28:11;3.80;82.90
39045;DHT22;52192;52.002;5.956;2024-01-07T06:30:37;3.80;82.70
39045;DHT22;52192;52.002;5.956;2024-01-07T06:33:03;3.80;82.60
39045;DHT22;52192;52.002;5.956;2024-01-07T06:35:29;3.80;82.60
39045;DHT22;52192;52.002;5.956;2024-01-07T06:37:56;3.90;82.50
39045;DHT22;52192;52.002;5.956;2024-01-07T06:40:21;3.80;82.30
39045;DHT22;52192;52.002;5.956;2024-01-07T06:42:48;3.80;82.50
39045;DHT22;52192;52.002;5.956;2024-01-07T06:45:15;3.80;82.50
39045;DHT22;52192;52.002;5.956;2024-01-07T06:47:41;3.80;82.50
39045;DHT22;52192;52.002;5.956;2024-01-07T06:50:07;3.80;82.40
39045;DHT22;52192;52.002;5.956;2024-01-07T06:52:33;3.80;82.40
39045;DHT22;52192;52.002;5.956;2024-01-07T06:54:58;3.80;82.40
39045;DHT22;52192;52.002;5.956;2024-01-07T06:57:24;3.80;82.30
39045;DHT22;52192;52.002;5.956;2024-01-07T06:59:49;3.80;82.30
39045;DHT22;52192;52.002;5.956;2024-01-07T07:02:15;3.80;82.20
39045;DHT22;52192;52.002;5.956;2024-01-07T07:04:41;3.70;82.20
39045;DHT22;52192;52.002;5.956;2024-01-07T07:07:06;3.70;82.20
39045;DHT22;52192;52.002;5.956;2024-01-07T07:09:32;3.70;82.30
39045;DHT22;52192;52.002;5.956;2024-01-07T07:11:59;3.60;82.10
39045;DHT22;52192;52.002;5.956;2024-01-07T07:14:25;3.60;82.30
39045;DHT22;52192;52.002;5.956;2024-01-07T07:16:51;3.70;82.30
39045;DHT22;52192;52.002;5.956;2024-01-07T07:19:16;3.70;82.10
39045;DHT22;52192;52.002;5.956;2024-01-07T07:21:43;3.60;82.10
39045;DHT22;52192;52.002;5.956;2024-01-07T07:24:09;3.70;82.10
39045;DHT22;52192;52.002;5.956;2024-01-07T07:26:35;3.70;82.00
39045;DHT22;52192;52.002;5.956;2024-01-07T07:29:06;3.60;82.00
39045;DHT22;52192;52.002;5.956;2024-01-07T07:31:32;3.70;82.10
39045;DHT22;52192;52.002;5.956;2024-01-07T07:33:57;3.70;82.10
39045;DHT22;52192;52.002;5.956;2024-01-07T07:36:23;3.70;82.00
39045;DHT22;52192;52.002;5.956;2024-01-07T07:38:49;3.70;81.80
39045;DHT22;52192;52.002;5.956;2024-01-07T07:41:15;3.60;81.80
39045;DHT22;52192;52.002;5.956;2024-01-07T07:43:40;3.60;81.80
39045;DHT22;52192;52.002;5.956;2024-01-07T07:46:06;3.60;81.80
39045;DHT22;52192;52.002;5.956;2024-01-07T07:48:31;3.60;81.70
39045;DHT22;52192;52.002;5.956;2024-01-07T07:50:57;3.60;81.80
39045;DHT22;52192;52.002;5.956;2024-01-07T07:53:23;3.60;82.30
39045;DHT22;52192;52.002;5.956;2024-01-07T07:55:48;3.60;81.70
39045;DHT22;52192;52.002;5.956;2024-01-07T07:58:15;3.60;81.60
39045;DHT22;52192;52.002;5.956;2024-01-07T08:00:41;3.60;81.60
39045;DHT22;52192;52.002;5.956;2024-01-07T08:03:06;3.50;81.40
39045;DHT22;52192;52.002;5.956;2024-01-07T08:05:32;3.50;81.60
39045;DHT22;52192;52.002;5.956;2024-01-07T08:07:57;3.50;81.40
39045;DHT22;52192;52.002;5.956;2024-01-07T08:10:23;3.50;81.40
39045;DHT22;52192;52.002;5.956;2024-01-07T08:12:49;3.50;81.40
39045;DHT22;52192;52.002;5.956;2024-01-07T08:15:15;3.50;81.60
39045;DHT22;52192;52.002;5.956;2024-01-07T08:17:41;3.50;81.60
39045;DHT22;52192;52.002;5.956;2024-01-07T08:20:07;3.50;81.60
39045;DHT22;52192;52.002;5.956;2024-01-07T08:22:33;3.50;81.40
39045;DHT22;52192;52.002;5.956;2024-01-07T08:24:58;3.50;81.30
39045;DHT22;52192;52.002;5.956;2024-01-07T08:27:24;3.40;81.30
39045;DHT22;52192;52.002;5.956;2024-01-07T08:29:50;3.40;81.40
39045;DHT22;52192;52.002;5.956;2024-01-07T08:32:15;3.30;81.30
39045;DHT22;52192;52.002;5.956;2024-01-07T08:34:41;3.30;81.40
39045;DHT22;52192;52.002;5.956;2024-01-07T08:37:07;3.30;81.50
39045;DHT22;52192;52.002;5.956;2024-01-07T08:39:34;3.30;81.40
39045;DHT22;52192;52.002;5.956;2024-01-07T08:42:00;3.40;81.40
39045;DHT22;52192;52.002;5.956;2024-01-07T08:44:25;3.40;81.30
39045;DHT22;52192;52.002;5.956;2024-01-07T08:46:51;3.40;81.10
39045;DHT22;52192;52.002;5.956;2024-01-07T08:49:17;3.40;81.20
39045;DHT22;52192;52.002;5.956;2024-01-07T08:51:42;3.30;80.80
39045;DHT22;52192;52.002;5.956;2024-01-07T08:54:08;3.30;80.90
39045;DHT22;52192;52.002;5.956;2024-01-07T08:56:34;3.30;81.00
39045;DHT22;52192;52.002;5.956;2024-01-07T08:59:00;3.30;80.90
39045;DHT22;52192;52.002;5.956;2024-01-07T09:01:25;3.30;80.70
39045;DHT22;52192;52.002;5.956;2024-01-07T09:03:51;3.30;80.80
39045;DHT22;52192;52.002;5.956;2024-01-07T09:06:16;3.30;80.90
39045;DHT22;52192;52.002;5.956;2024-01-07T09:08:42;3.30;80.70
39045;DHT22;52192;52.002;5.956;2024-01-07T09:11:08;3.20;80.70
39045;DHT22;52192;52.002;5.956;2024-01-07T09:13:36;3.20;80.60
39045;DHT22;52192;52.002;5.956;2024-01-07T09:16:02;3.20;80.60
39045;DHT22;52192;52.002;5.956;2024-01-07T09:18:28;3.20;80.40
39045;DHT22;52192;52.002;5.956;2024-01-07T09:20:54;3.20;80.40
39045;DHT22;52192;52.002;5.956;2024-01-07T09:23:19;3.20;80.40
39045;DHT22;52192;52.002;5.956;2024-01-07T09:25:45;3.20;80.30
39045;DHT22;52192;52.002;5.956;2024-01-07T09:28:11;3.20;80.30
39045;DHT22;52192;52.002;5.956;2024-01-07T09:30:38;3.30;80.30
39045;DHT22;52192;52.002;5.956;2024-01-07T09:33:04;3.30;80.30
39045;DHT22;52192;52.002;5.956;2024-01-07T09:35:30;3.30;80.10
39045;DHT22;52192;52.002;5.956;2024-01-07T09:37:57;3.40;80.10
39045;DHT22;52192;52.002;5.956;2024-01-07T09:40:23;3.30;79.90
39045;DHT22;52192;52.002;5.956;2024-01-07T09:42:49;3.40;80.10
39045;DHT22;52192;52.002;5.956;2024-01-07T09:45:16;3.30;80.00
39045;DHT22;52192;52.002;5.956;2024-01-07T09:47:44;3.30;79.80
39045;DHT22;52192;52.002;5.956;2024-01-07T09:50:11;3.40;79.90
39045;DHT22;52192;52.002;5.956;2024-01-07T09:52:38;3.40;79.70
39045;DHT22;52192;52.002;5.956;2024-01-07T09:55:09;3.40;79.60
39045;DHT22;52192;52.002;5.956;2024-01-07T09:57:36;3.30;79.40
39045;DHT22;52192;52.002;5.956;2024-01-07T10:00:03;3.30;79.40
39045;DHT22;52192;52.002;5.956;2024-01-07T10:02:30;3.30;79.40
39045;DHT22;52192;52.002;5.956;2024-01-07T10:04:56;3.40;79.30
39045;DHT22;52192;52.002;5.956;2024-01-07T10:07:21;3.40;79.20
39045;DHT22;52192;52.002;5.956;2024-01-07T10:09:47;3.50;79.10
39045;DHT22;52192;52.002;5.956;2024-01-07T10:12:13;3.50;79.50
39045;DHT22;52192;52.002;5.956;2024-01-07T10:14:39;3.50;78.90
39045;DHT22;52192;52.002;5.956;2024-01-07T10:17:23;3.60;78.80
39045;DHT22;52192;52.002;5.956;2024-01-07T10:19:53;3.70;78.60
39045;DHT22;52192;52.002;5.956;2024-01-07T10:22:19;3.70;78.30
39045;DHT22;52192;52.002;5.956;2024-01-07T10:24:45;3.70;78.10
39045;DHT22;52192;52.002;5.956;2024-01-07T10:27:11;3.70;77.90
39045;DHT22;52192;52.002;5.956;2024-01-07T10:29:37;3.70;77.90
39045;DHT22;52192;52.002;5.956;2024-01-07T10:32:03;3.70;77.80
39045;DHT22;52192;52.002;5.956;2024-01-07T10:34:35;3.80;77.90
39045;DHT22;52192;52.002;5.956;2024-01-07T10:37:03;3.90;77.60
39045;DHT22;52192;52.002;5.956;2024-01-07T10:39:29;4.00;77.10
39045;DHT22;52192;52.002;5.956;2024-01-07T10:41:56;4.20;77.10
39045;DHT22;52192;52.002;5.956;2024-01-07T10:44:30;4.60;76.30
39045;DHT22;52192;52.002;5.956;2024-01-07T10:46:57;4.80;75.80
39045;DHT22;52192;52.002;5.956;2024-01-07T10:49:24;4.80;74.80
39045;DHT22;52192;52.002;5.956;2024-01-07T10:52:03;4.70;74.80
39045;DHT22;52192;52.002;5.956;2024-01-07T10:54:33;4.60;75.00
39045;DHT22;52192;52.002;5.956;2024-01-07T10:57:36;4.50;75.30
39045;DHT22;52192;52.002;5.956;2024-01-07T11:00:00;4.50;75.20
39045;DHT22;52192;52.002;5.956;2024-01-07T11:02:26;4.40;75.30
39045;DHT22;52192;52.002;5.956;2024-01-07T11:05:15;4.30;75.10
39045;DHT22;52192;52.002;5.956;2024-01-07T11:07:45;4.30;74.90
39045;DHT22;52192;52.002;5.956;2024-01-07T11:10:14;4.20;75.10
39045;DHT22;52192;52.002;5.956;2024-01-07T11:12:43;4.30;75.50
39045;DHT22;52192;52.002;5.956;2024-01-07T11:15:09;4.50;74.70
39045;DHT22;52192;52.002;5.956;2024-01-07T11:20:07;5.60;74.60
39045;DHT22;52192;52.002;5.956;2024-01-07T11:22:36;6.70;71.30
39045;DHT22;52192;52.002;5.956;2024-01-07T11:25:02;8.00;68.80
39045;DHT22;52192;52.002;5.956;2024-01-07T11:27:31;9.40;64.40
39045;DHT22;52192;52.002;5.956;2024-01-07T11:30:17;10.30;61.70
39045;DHT22;52192;52.002;5.956;2024-01-07T11:32:45;11.10;60.50
39045;DHT22;52192;52.002;5.956;2024-01-07T11:35:13;12.20;57.10
39045;DHT22;52192;52.002;5.956;2024-01-07T11:37:41;12.10;56.90
39045;DHT22;52192;52.002;5.956;2024-01-07T11:40:07;12.00;56.30
39045;DHT22;52192;52.002;5.956;2024-01-07T11:42:33;12.60;55.50
39045;DHT22;52192;52.002;5.956;2024-01-07T11:44:59;12.80;54.30
39045;DHT22;52192;52.002;5.956;2024-01-07T11:47:25;12.70;53.80
39045;DHT22;52192;52.002;5.956;2024-01-07T11:49:54;12.60;53.90
39045;DHT22;52192;52.002;5.956;2024-01-07T11:52:19;13.50;52.50
39045;DHT22;52192;52.002;5.956;2024-01-07T11:54:47;14.60;50.10
39045;DHT22;52192;52.002;5.956;2024-01-07T11:57:13;15.40;48.00
39045;DHT22;52192;52.002;5.956;2024-01-07T11:59:39;16.00;46.50
39045;DHT22;52192;52.002;5.956;2024-01-07T12:02:05;16.80;44.50
39045;DHT22;52192;52.002;5.956;2024-01-07T12:04:32;17.10;43.10
39045;DHT22;52192;52.002;5.956;2024-01-07T12:06:58;17.20;41.40
39045;DHT22;52192;52.002;5.956;2024-01-07T12:09:24;17.40;41.00
39045;DHT22;52192;52.002;5.956;2024-01-07T12:11:51;18.10;40.50
39045;DHT22;52192;52.002;5.956;2024-01-07T12:14:17;18.50;38.00
39045;DHT22;52192;52.002;5.956;2024-01-07T12:16:43;18.90;37.30
39045;DHT22;52192;52.002;5.956;2024-01-07T12:19:10;19.50;37.30
39045;DHT22;52192;52.002;5.956;2024-01-07T12:21:36;20.10;37.20
39045;DHT22;52192;52.002;5.956;2024-01-07T12:24:02;21.00;36.10
39045;DHT22;52192;52.002;5.956;2024-01-07T12:26:28;21.50;34.30
39045;DHT22;52192;52.002;5.956;2024-01-07T12:28:56;21.10;33.50
39045;DHT22;52192;52.002;5.956;2024-01-07T12:31:26;19.50;34.90
39045;DHT22;52192;52.002;5.956;2024-01-07T12:33:55;17.40;36.80
39045;DHT22;52192;52.002;5.956;2024-01-07T12:36:22;15.30;39.60
39045;DHT22;52192;52.002;5.956;2024-01-07T12:38:48;13.20;41.30
39045;DHT22;52192;52.002;5.956;2024-01-07T12:41:14;11.30;43.60
39045;DHT22;52192;52.002;5.956;2024-01-07T12:43:40;9.80;46.30
39045;DHT22;52192;52.002;5.956;2024-01-07T12:46:06;8.80;48.60
39045;DHT22;52192;52.002;5.956;2024-01-07T12:48:32;8.50;50.40
39045;DHT22;52192;52.002;5.956;2024-01-07T12:50:59;8.90;50.30
39045;DHT22;52192;52.002;5.956;2024-01-07T12:53:25;9.50;49.70
39045;DHT22;52192;52.002;5.956;2024-01-07T12:55:52;9.80;48.90
39045;DHT22;52192;52.002;5.956;2024-01-07T12:58:18;9.80;49.00
39045;DHT22;52192;52.002;5.956;2024-01-07T13:00:44;9.70;49.20
39045;DHT22;52192;52.002;5.956;2024-01-07T13:03:10;9.40;49.60
39045;DHT22;52192;52.002;5.956;2024-01-07T13:05:45;8.80;50.10
39045;DHT22;52192;52.002;5.956;2024-01-07T13:08:12;8.20;51.50
39045;DHT22;52192;52.002;5.956;2024-01-07T13:10:39;7.60;52.30
39045;DHT22;52192;52.002;5.956;2024-01-07T13:13:04;7.20;53.30
39045;DHT22;52192;52.002;5.956;2024-01-07T13:15:30;6.80;54.20
39045;DHT22;52192;52.002;5.956;2024-01-07T13:17:57;6.50;55.10
39045;DHT22;52192;52.002;5.956;2024-01-07T13:20:22;6.40;55.60
39045;DHT22;52192;52.002;5.956;2024-01-07T13:22:49;6.20;56.00
39045;DHT22;52192;52.002;5.956;2024-01-07T13:25:15;6.10;56.50
39045;DHT22;52192;52.002;5.956;2024-01-07T13:27:40;6.10;56.70
39045;DHT22;52192;52.002;5.956;2024-01-07T13:30:08;6.30;57.30
39045;DHT22;52192;52.002;5.956;2024-01-07T13:32:33;6.90;56.30
39045;DHT22;52192;52.002;5.956;2024-01-07T13:35:06;7.60;55.30
39045;DHT22;52192;52.002;5.956;2024-01-07T13:37:36;7.90;53.80
39045;DHT22;52192;52.002;5.956;2024-01-07T13:40:02;7.70;53.30
39045;DHT22;52192;52.002;5.956;2024-01-07T13:42:29;7.40;54.20
39045;DHT22;52192;52.002;5.956;2024-01-07T13:44:55;8.00;53.90
39045;DHT22;52192;52.002;5.956;2024-01-07T13:47:20;8.90;52.20
39045;DHT22;52192;52.002;5.956;2024-01-07T13:49:46;9.60;51.90
39045;DHT22;52192;52.002;5.956;2024-01-07T13:52:12;10.20;49.90
39045;DHT22;52192;52.002;5.956;2024-01-07T13:54:38;10.20;50.30
39045;DHT22;52192;52.002;5.956;2024-01-07T13:57:04;10.50;49.00
39045;DHT22;52192;52.002;5.956;2024-01-07T13:59:30;10.90;48.20
39045;DHT22;52192;52.002;5.956;2024-01-07T14:01:56;11.60;46.20
39045;DHT22;52192;52.002;5.956;2024-01-07T14:04:23;11.30;45.80
39045;DHT22;52192;52.002;5.956;2024-01-07T14:06:57;11.30;46.90
39045;DHT22;52192;52.002;5.956;2024-01-07T14:09:23;11.60;46.00
39045;DHT22;52192;52.002;5.956;2024-01-07T14:11:50;11.60;45.60
39045;DHT22;52192;52.002;5.956;2024-01-07T14:14:15;11.50;45.70
39045;DHT22;52192;52.002;5.956;2024-01-07T14:16:41;11.00;45.90
39045;DHT22;52192;52.002;5.956;2024-01-07T14:19:07;10.60;46.80
39045;DHT22;52192;52.002;5.956;2024-01-07T14:21:32;10.10;47.00
39045;DHT22;52192;52.002;5.956;2024-01-07T14:23:58;9.50;48.30
39045;DHT22;52192;52.002;5.956;2024-01-07T14:26:24;8.80;49.40
39045;DHT22;52192;52.002;5.956;2024-01-07T14:28:50;8.30;50.70
39045;DHT22;52192;52.002;5.956;2024-01-07T14:31:16;7.90;51.90
39045;DHT22;52192;52.002;5.956;2024-01-07T14:33:42;7.50;52.60
39045;DHT22;52192;52.002;5.956;2024-01-07T14:36:09;7.10;53.20
39045;DHT22;52192;52.002;5.956;2024-01-07T14:38:44;6.80;54.00
39045;DHT22;52192;52.002;5.956;2024-01-07T14:41:11;6.60;54.60
39045;DHT22;52192;52.002;5.956;2024-01-07T14:43:37;6.40;54.30
39045;DHT22;52192;52.002;5.956;2024-01-07T14:46:03;6.10;55.10
39045;DHT22;52192;52.002;5.956;2024-01-07T14:48:29;5.90;55.40
39045;DHT22;52192;52.002;5.956;2024-01-07T14:50:55;5.90;56.50
39045;DHT22;52192;52.002;5.956;2024-01-07T14:53:21;5.70;56.20
39045;DHT22;52192;52.002;5.956;2024-01-07T14:55:46;5.60;56.80
39045;DHT22;52192;52.002;5.956;2024-01-07T14:58:12;5.60;57.10
39045;DHT22;52192;52.002;5.956;2024-01-07T15:00:38;5.50;57.10
39045;DHT22;52192;52.002;5.956;2024-01-07T15:03:04;5.50;57.30
39045;DHT22;52192;52.002;5.956;2024-01-07T15:05:30;5.50;57.60
39045;DHT22;52192;52.002;5.956;2024-01-07T15:07:56;5.40;57.80
39045;DHT22;52192;52.002;5.956;2024-01-07T15:10:21;5.30;58.30
39045;DHT22;52192;52.002;5.956;2024-01-07T15:12:47;5.20;58.50
39045;DHT22;52192;52.002;5.956;2024-01-07T15:15:15;5.20;58.60
39045;DHT22;52192;52.002;5.956;2024-01-07T15:17:41;5.10;58.70
39045;DHT22;52192;52.002;5.956;2024-01-07T15:20:08;5.10;58.90
39045;DHT22;52192;52.002;5.956;2024-01-07T15:22:33;5.00;59.10
39045;DHT22;52192;52.002;5.956;2024-01-07T15:24:59;4.90;59.30
39045;DHT22;52192;52.002;5.956;2024-01-07T15:27:25;4.90;59.50
39045;DHT22;52192;52.002;5.956;2024-01-07T15:29:51;4.80;59.60
39045;DHT22;52192;52.002;5.956;2024-01-07T15:32:16;4.70;59.80
39045;DHT22;52192;52.002;5.956;2024-01-07T15:34:42;4.70;59.90
39045;DHT22;52192;52.002;5.956;2024-01-07T15:37:07;4.60;60.00
39045;DHT22;52192;52.002;5.956;2024-01-07T15:39:35;4.60;60.20
39045;DHT22;52192;52.002;5.956;2024-01-07T15:42:00;4.50;60.20